createdAt,value
2023-04-14T00:07:02.652Z,98914.88
2023-04-14T00:16:35.138Z,98913.05
2023-04-14T00:26:13.067Z,98908.14
2023-04-14T00:35:44.078Z,98920.32
2023-04-14T00:45:15.495Z,98918.09
2023-04-14T00:54:50.376Z,98922.31
2023-04-14T01:04:21.961Z,98918.09
2023-04-14T01:13:56.141Z,98905.34
2023-04-14T01:23:27.493Z,98901.16
2023-04-14T01:33:01.570Z,98903.99
2023-04-14T01:42:32.453Z,98904.57
2023-04-14T01:52:04.760Z,98910.08
2023-04-14T02:01:38.156Z,98931.06
2023-04-14T02:11:10.408Z,98925.44
2023-04-14T02:20:42.029Z,98932.03
2023-04-14T02:30:16.599Z,98941.56
2023-04-14T02:39:48.288Z,98957.06
2023-04-14T02:49:21.463Z,98956.13
2023-04-14T02:58:56.006Z,98963.34
2023-04-14T03:08:26.930Z,98966.89
2023-04-14T03:17:58.530Z,98977.30
2023-04-14T03:27:31.788Z,98963.73
2023-04-14T03:37:04.595Z,98962.14
2023-04-14T03:46:36.273Z,98960.42
2023-04-14T03:56:09.385Z,98959.06
2023-04-14T04:05:42.719Z,98965.53
2023-04-14T04:15:17.782Z,98960.72
2023-04-14T04:24:49.367Z,98975.91
2023-04-14T04:34:22.457Z,98986.56
2023-04-14T04:43:55.151Z,98993.02
2023-04-14T04:53:30.043Z,98997.51
2023-04-14T05:03:03.665Z,99002.26
2023-04-14T05:12:36.739Z,99007.19
2023-04-14T05:22:08.368Z,99004.66
2023-04-14T05:31:43.676Z,99014.94
2023-04-14T05:41:14.595Z,99011.31
2023-04-14T05:50:49.220Z,99012.00
2023-04-14T06:00:20.034Z,99027.30
2023-04-14T06:09:53.796Z,99023.81
2023-04-14T06:19:27.437Z,99022.94
2023-04-14T06:29:01.370Z,99018.64
2023-04-14T06:38:36.600Z,99008.66
2023-04-14T06:48:10.716Z,99006.08
2023-04-14T06:57:44.184Z,99002.24
2023-04-14T07:07:16.436Z,99006.22
2023-04-14T07:08:18.893Z,99005.67
2023-04-14T07:09:21.383Z,99004.16
2023-04-14T07:18:54.792Z,99002.92
2023-04-14T07:19:58.830Z,98999.83
2023-04-14T07:29:30.016Z,99012.06
2023-04-14T07:30:32.481Z,99008.67
2023-04-14T07:31:36.432Z,99010.03
2023-04-14T07:32:38.754Z,99009.63
2023-04-14T07:33:42.684Z,99010.25
2023-04-14T07:34:45.036Z,99006.25
2023-04-14T07:44:16.736Z,99010.19
2023-04-14T07:45:19.197Z,99012.89
2023-04-14T07:46:23.287Z,99006.41
2023-04-14T07:47:25.491Z,99010.27
2023-04-14T07:48:27.841Z,99003.20
2023-04-14T07:49:30.228Z,99004.21
2023-04-14T07:50:32.638Z,99004.95
2023-04-14T07:51:35.092Z,99004.42
2023-04-14T07:52:39.103Z,99008.66
2023-04-14T07:53:41.334Z,99000.43
2023-04-14T07:54:43.734Z,99003.55
2023-04-14T07:55:46.045Z,99001.63
2023-04-14T08:05:18.577Z,98998.97
2023-04-14T08:06:22.564Z,99000.24
2023-04-14T08:07:26.487Z,98992.02
2023-04-14T08:08:28.719Z,98993.70
2023-04-14T08:09:32.782Z,98994.98
2023-04-14T08:10:36.611Z,98989.27
2023-04-14T08:11:38.971Z,98985.03
2023-04-14T08:12:42.937Z,98987.16
2023-04-14T08:13:45.286Z,98982.17
2023-04-14T08:14:49.335Z,98986.41
2023-04-14T08:15:51.788Z,98987.06
2023-04-14T08:16:54.142Z,98986.64
2023-04-14T08:17:56.549Z,98988.06
2023-04-14T08:18:59.080Z,98985.41
2023-04-14T08:20:02.997Z,98986.25
2023-04-14T08:21:05.414Z,98990.07
2023-04-14T08:22:07.829Z,98982.77
2023-04-14T08:23:11.825Z,98989.02
2023-04-14T08:24:15.827Z,98983.72
2023-04-14T08:25:18.153Z,98982.30
2023-04-14T08:26:22.192Z,98979.02
2023-04-14T08:27:24.475Z,98981.46
2023-04-14T08:28:26.871Z,98975.98
2023-04-14T08:29:29.305Z,98976.82
2023-04-14T08:30:31.728Z,98980.27
2023-04-14T08:31:35.762Z,98978.36
2023-04-14T08:32:38.033Z,98975.64
2023-04-14T08:33:40.439Z,98977.95
2023-04-14T08:35:36.738Z,98975.03
2023-04-14T08:35:45.217Z,98977.53
2023-04-14T08:36:47.618Z,98976.92
2023-04-14T08:37:50.017Z,98976.66
2023-04-14T08:38:54.080Z,98979.45
2023-04-14T08:39:57.980Z,98973.26
2023-04-14T08:41:01.895Z,98977.32
2023-04-14T08:42:05.795Z,98973.50
2023-04-14T08:43:10.694Z,98972.76
2023-04-14T08:44:12.031Z,98976.26
2023-04-14T08:45:16.059Z,98977.27
2023-04-14T08:46:20.225Z,98974.11
2023-04-14T08:47:22.464Z,98974.53
2023-04-14T08:48:25.610Z,98970.33
2023-04-14T08:49:27.307Z,98967.67
2023-04-14T08:50:31.343Z,98969.16
2023-04-14T08:51:33.601Z,98970.24
2023-04-14T08:52:37.650Z,98970.06
2023-04-14T08:53:39.910Z,98974.45
2023-04-14T08:54:43.897Z,98968.58
2023-04-14T08:55:47.809Z,98971.59
2023-04-14T08:56:51.678Z,98967.05
2023-04-14T08:57:55.653Z,98973.25
2023-04-14T08:58:59.528Z,98969.89
2023-04-14T09:00:01.813Z,98975.72
2023-04-14T09:01:04.260Z,98966.22
2023-04-14T09:02:08.397Z,98963.15
2023-04-14T09:03:10.631Z,98961.05
2023-04-14T09:04:13.039Z,98966.61
2023-04-14T09:05:15.345Z,98969.30
2023-04-14T09:06:17.786Z,98962.83
2023-04-14T09:07:21.765Z,98963.05
2023-04-14T09:08:24.018Z,98962.39
2023-04-14T09:09:26.459Z,98962.94
2023-04-14T09:10:28.874Z,98965.22
2023-04-14T09:11:31.329Z,98965.98
2023-04-14T09:12:33.799Z,98963.83
2023-04-14T09:13:36.185Z,98966.25
2023-04-14T09:14:38.612Z,98962.20
2023-04-14T09:15:42.662Z,98964.34
2023-04-14T09:16:46.523Z,98959.90
2023-04-14T09:17:48.854Z,98966.56
2023-04-14T09:18:52.905Z,98964.80
2023-04-14T09:20:34.315Z,98960.28
2023-04-14T09:21:29.690Z,98961.36
2023-04-14T09:22:00.098Z,98962.22
2023-04-14T09:23:02.594Z,98958.67
2023-04-14T09:24:06.559Z,98950.57
2023-04-14T09:25:08.907Z,98950.34
2023-04-14T09:26:12.907Z,98950.55
2023-04-14T09:27:15.265Z,98952.80
2023-04-14T09:28:19.786Z,98950.33
2023-04-14T09:29:21.610Z,98944.91
2023-04-14T09:30:25.611Z,98947.52
2023-04-14T09:31:29.572Z,98944.63
2023-04-14T09:32:31.884Z,98942.05
2023-04-14T09:33:34.405Z,98942.33
2023-04-14T09:34:38.370Z,98939.83
2023-04-14T09:35:40.708Z,98940.34
2023-04-14T09:36:43.174Z,98943.58
2023-04-14T09:37:45.638Z,98947.44
2023-04-14T09:38:49.649Z,98946.19
2023-04-14T09:39:53.582Z,98943.39
2023-04-14T09:40:57.470Z,98938.41
2023-04-14T09:41:59.795Z,98944.66
2023-04-14T09:43:03.872Z,98941.98
2023-04-14T09:44:07.801Z,98938.57
2023-04-14T09:45:10.136Z,98939.19
2023-04-14T09:46:12.593Z,98938.11
2023-04-14T09:47:15.181Z,98936.63
2023-04-14T09:48:17.573Z,98933.98
2023-04-14T09:49:19.926Z,98934.02
2023-04-14T09:50:22.321Z,98936.10
2023-04-14T09:51:24.793Z,98934.91
2023-04-14T09:52:27.157Z,98933.90
2023-04-14T09:53:31.198Z,98932.42
2023-04-14T09:54:35.065Z,98932.88
2023-04-14T09:55:37.465Z,98937.65
2023-04-14T09:56:41.333Z,98934.47
2023-04-14T09:57:43.633Z,98936.52
2023-04-14T09:58:46.042Z,98939.55
2023-04-14T09:59:48.495Z,98931.35
2023-04-14T10:00:50.835Z,98941.44
2023-04-14T10:01:54.937Z,98932.23
2023-04-14T10:02:58.847Z,98931.81
2023-04-14T10:04:01.144Z,98931.73
2023-04-14T10:05:05.233Z,98927.34
2023-04-14T10:06:09.081Z,98929.67
2023-04-14T10:07:11.436Z,98930.80
2023-04-14T10:08:13.904Z,98929.11
2023-04-14T10:09:16.118Z,98925.54
2023-04-14T10:10:18.592Z,98928.78
2023-04-14T10:11:22.689Z,98919.71
2023-04-14T10:12:24.842Z,98920.45
2023-04-14T10:13:27.150Z,98921.05
2023-04-14T10:14:29.641Z,98915.91
2023-04-14T10:15:32.079Z,98915.67
2023-04-14T10:16:36.146Z,98913.94
2023-04-14T10:17:38.443Z,98918.42
2023-04-14T10:18:42.411Z,98908.94
2023-04-14T10:19:44.616Z,98906.22
2023-04-14T10:20:48.695Z,98908.40
2023-04-14T10:21:50.961Z,98911.11
2023-04-14T10:22:54.992Z,98907.26
2023-04-14T10:23:58.916Z,98909.37
2023-04-14T10:25:01.239Z,98906.68
2023-04-14T10:26:05.274Z,98905.16
2023-04-14T10:27:09.219Z,98909.88
2023-04-14T10:28:11.531Z,98908.95
2023-04-14T10:29:14.024Z,98907.77
2023-04-14T10:30:16.462Z,98899.41
2023-04-14T10:31:18.835Z,98895.77
2023-04-14T10:32:21.297Z,98898.34
2023-04-14T10:33:23.719Z,98900.31
2023-04-14T10:34:26.237Z,98894.64
2023-04-14T10:35:30.396Z,98900.88
2023-04-14T10:36:32.633Z,98903.86
2023-04-14T10:37:35.130Z,98905.38
2023-04-14T10:38:37.592Z,98903.28
2023-04-14T10:39:40.018Z,98898.95
2023-04-14T10:40:44.030Z,98906.23
2023-04-14T10:41:46.514Z,98898.81
2023-04-14T10:42:50.497Z,98904.13
2023-04-14T10:43:52.841Z,98897.05
2023-04-14T10:44:55.342Z,98896.31
2023-04-14T10:45:57.729Z,98901.57
2023-04-14T10:47:00.267Z,98899.75
2023-04-14T10:48:04.250Z,98898.27
2023-04-14T10:49:08.193Z,98897.88
2023-04-14T10:50:10.509Z,98901.38
2023-04-14T10:51:12.966Z,98894.16
2023-04-14T10:52:17.108Z,98893.48
2023-04-14T10:53:20.938Z,98892.41
2023-04-14T10:54:24.786Z,98894.79
2023-04-14T10:55:28.681Z,98886.75
2023-04-14T10:56:31.020Z,98891.21
2023-04-14T10:57:33.441Z,98893.67
2023-04-14T10:58:35.887Z,98890.09
2023-04-14T10:59:38.375Z,98886.19
2023-04-14T11:00:40.830Z,98886.11
2023-04-14T11:01:44.878Z,98890.08
2023-04-14T11:02:47.235Z,98891.27
2023-04-14T11:03:49.685Z,98887.48
2023-04-14T11:04:51.915Z,98888.36
2023-04-14T11:05:54.379Z,98885.12
2023-04-14T11:06:58.429Z,98885.20
2023-04-14T11:08:02.596Z,98888.26
2023-04-14T11:09:03.349Z,98884.67
2023-04-14T11:10:05.625Z,98882.52
2023-04-14T11:11:09.696Z,98886.95
2023-04-14T11:12:13.641Z,98884.97
2023-04-14T11:13:17.922Z,98880.96
2023-04-14T11:14:19.954Z,98873.71
2023-04-14T11:15:22.420Z,98876.23
2023-04-14T11:16:24.978Z,98874.90
2023-04-14T11:17:28.979Z,98875.59
2023-04-14T11:18:32.896Z,98866.85
2023-04-14T11:19:38.337Z,98860.82
2023-04-14T11:20:40.461Z,98866.35
2023-04-14T11:21:47.534Z,98863.36
2023-04-14T11:22:49.784Z,98867.97
2023-04-14T11:23:52.200Z,98864.05
2023-04-14T11:24:54.771Z,98861.95
2023-04-14T11:25:57.041Z,98861.36
2023-04-14T11:26:59.449Z,98857.42
2023-04-14T11:28:01.939Z,98855.58
2023-04-14T11:29:04.353Z,98859.75
2023-04-14T11:30:06.843Z,98857.71
2023-04-14T11:31:09.263Z,98852.91
2023-04-14T11:32:13.325Z,98866.84
2023-04-14T11:33:15.584Z,98852.44
2023-04-14T11:34:19.634Z,98860.41
2023-04-14T11:35:23.576Z,98850.53
2023-04-14T11:36:27.463Z,98860.58
2023-04-14T11:37:29.777Z,98852.92
2023-04-14T11:38:33.884Z,98853.68
2023-04-14T11:48:06.663Z,98842.48
2023-04-14T11:49:08.953Z,98840.27
2023-04-14T11:50:11.448Z,98842.28
2023-04-14T11:51:14.145Z,98835.48
2023-04-14T11:52:18.120Z,98832.43
2023-04-14T11:53:21.535Z,98835.02
2023-04-14T11:54:23.835Z,98832.94
2023-04-14T11:55:26.258Z,98830.92
2023-04-14T11:56:28.669Z,98831.71
2023-04-14T11:57:31.100Z,98821.55
2023-04-14T11:58:33.558Z,98822.63
2023-04-14T11:59:36.029Z,98819.59
2023-04-14T12:00:38.581Z,98820.39
2023-04-14T12:01:41.010Z,98815.00
2023-04-14T12:02:45.412Z,98808.58
2023-04-14T12:03:47.534Z,98813.65
2023-04-14T12:04:50.558Z,98814.13
2023-04-14T12:05:53.843Z,98812.81
2023-04-14T12:06:56.222Z,98807.38
2023-04-14T12:07:58.702Z,98805.16
2023-04-14T12:09:01.257Z,98809.64
2023-04-14T12:10:03.536Z,98805.05
2023-04-14T12:11:07.659Z,98807.24
2023-04-14T12:12:10.041Z,98806.24
2023-04-14T12:13:12.487Z,98804.69
2023-04-14T12:14:16.499Z,98808.09
2023-04-14T12:15:18.861Z,98810.59
2023-04-14T12:16:21.351Z,98810.14
2023-04-14T12:17:23.803Z,98804.78
2023-04-14T12:18:26.220Z,98805.27
2023-04-14T12:19:30.326Z,98805.91
2023-04-14T12:20:32.646Z,98801.88
2023-04-14T12:21:35.097Z,98804.42
2023-04-14T12:22:37.838Z,98800.00
2023-04-14T12:23:40.233Z,98799.14
2023-04-14T12:24:44.457Z,98798.51
2023-04-14T12:25:46.758Z,98787.76
2023-04-14T12:26:49.177Z,98793.00
2023-04-14T12:27:51.666Z,98790.53
2023-04-14T12:28:54.025Z,98792.98
2023-04-14T12:29:58.102Z,98792.88
2023-04-14T12:31:00.452Z,98788.79
2023-04-14T12:32:04.457Z,98791.11
2023-04-14T12:33:06.783Z,98788.76
2023-04-14T12:34:10.823Z,98787.31
2023-04-14T12:35:14.831Z,98786.16
2023-04-14T12:36:17.121Z,98792.97
2023-04-14T12:37:19.541Z,98786.78
2023-04-14T12:38:23.516Z,98790.69
2023-04-14T12:39:25.909Z,98788.33
2023-04-14T12:40:28.344Z,98783.97
2023-04-14T12:41:30.764Z,98781.64
2023-04-14T12:42:33.205Z,98787.13
2023-04-14T12:43:35.692Z,98784.71
2023-04-14T12:44:39.648Z,98784.02
2023-04-14T12:45:42.021Z,98781.71
2023-04-14T12:46:44.484Z,98783.20
2023-04-14T12:47:47.035Z,98783.69
2023-04-14T12:48:49.366Z,98775.06
2023-04-14T12:49:51.830Z,98782.27
2023-04-14T12:50:54.247Z,98775.06
2023-04-14T12:51:56.698Z,98775.58
2023-04-14T12:52:59.189Z,98776.25
2023-04-14T12:54:01.682Z,98776.45
2023-04-14T12:55:07.449Z,98772.92
2023-04-14T12:56:09.771Z,98769.07
2023-04-14T12:57:13.639Z,98774.08
2023-04-14T12:58:17.681Z,98772.39
2023-04-14T12:59:20.040Z,98766.58
2023-04-14T13:00:22.476Z,98766.13
2023-04-14T13:01:25.028Z,98764.13
2023-04-14T13:02:27.552Z,98766.98
2023-04-14T13:03:29.982Z,98760.91
2023-04-14T13:04:32.384Z,98760.84
2023-04-14T13:05:37.392Z,98761.25
2023-04-14T13:06:39.787Z,98755.06
2023-04-14T13:07:43.875Z,98755.74
2023-04-14T13:08:47.852Z,98752.30
2023-04-14T13:09:51.893Z,98754.00
2023-04-14T13:10:54.280Z,98750.51
2023-04-14T13:11:56.680Z,98743.55
2023-04-14T13:13:00.741Z,98752.17
2023-04-14T13:14:03.142Z,98751.95
2023-04-14T13:15:05.552Z,98738.30
2023-04-14T13:16:11.936Z,98751.59
2023-04-14T13:17:12.025Z,98743.28
2023-04-14T13:18:14.510Z,98738.92
2023-04-14T13:19:16.951Z,98741.73
2023-04-14T13:20:19.387Z,98737.28
2023-04-14T13:21:21.863Z,98734.36
2023-04-14T13:22:24.333Z,98735.90
2023-04-14T13:23:26.826Z,98736.16
2023-04-14T13:24:29.253Z,98736.47
2023-04-14T13:25:33.448Z,98740.00
2023-04-14T13:26:35.856Z,98730.69
2023-04-14T13:27:38.284Z,98726.42
2023-04-14T13:28:40.783Z,98731.50
2023-04-14T13:29:43.279Z,98734.47
2023-04-14T13:30:45.799Z,98728.08
2023-04-14T13:31:50.019Z,98737.40
2023-04-14T13:32:57.978Z,98734.33
2023-04-14T13:34:01.521Z,98733.89
2023-04-14T13:35:05.235Z,98730.30
2023-04-14T13:36:09.201Z,98727.82
2023-04-14T13:37:11.597Z,98731.63
2023-04-14T13:38:14.084Z,98726.17
2023-04-14T13:39:16.977Z,98730.29
2023-04-14T13:40:20.955Z,98724.72
2023-04-14T13:41:24.975Z,98722.42
2023-04-14T13:42:27.279Z,98717.89
2023-04-14T13:43:31.369Z,98720.33
2023-04-14T13:44:33.698Z,98716.72
2023-04-14T13:45:36.285Z,98710.42
2023-04-14T13:46:41.368Z,98718.17
2023-04-14T13:47:41.391Z,98714.56
2023-04-14T13:48:45.540Z,98705.83
2023-04-14T13:49:47.918Z,98709.39
2023-04-14T13:50:50.488Z,98710.05
2023-04-14T13:51:52.940Z,98706.70
2023-04-14T13:52:55.383Z,98707.36
2023-04-14T13:53:57.925Z,98705.28
2023-04-14T13:55:01.970Z,98712.44
2023-04-14T13:56:04.243Z,98705.06
2023-04-14T13:57:06.719Z,98710.44
2023-04-14T13:58:10.831Z,98714.41
2023-04-14T13:59:14.815Z,98715.82
2023-04-14T14:00:18.736Z,98709.08
2023-04-14T14:01:21.085Z,98709.45
2023-04-14T14:02:25.222Z,98711.66
2023-04-14T14:03:29.167Z,98705.77
2023-04-14T14:04:30.015Z,98707.11
2023-04-14T14:05:34.061Z,98711.85
2023-04-14T14:06:36.358Z,98704.03
2023-04-14T14:07:38.913Z,98705.64
2023-04-14T14:08:41.403Z,98701.26
2023-04-14T14:09:45.481Z,98701.22
2023-04-14T14:10:47.895Z,98696.96
2023-04-14T14:11:50.343Z,98691.93
2023-04-14T14:12:52.820Z,98689.55
2023-04-14T14:13:57.211Z,98691.56
2023-04-14T14:15:01.032Z,98685.58
2023-04-14T14:16:03.447Z,98683.54
2023-04-14T14:17:05.850Z,98683.91
2023-04-14T14:18:08.330Z,98691.20
2023-04-14T14:19:10.778Z,98688.50
2023-04-14T14:20:13.234Z,98686.48
2023-04-14T14:21:15.710Z,98684.08
2023-04-14T14:22:19.241Z,98682.93
2023-04-14T14:23:21.636Z,98679.30
2023-04-14T14:24:25.736Z,98683.69
2023-04-14T14:25:28.026Z,98681.53
2023-04-14T14:26:30.487Z,98678.11
2023-04-14T14:27:32.998Z,98677.49
2023-04-14T14:28:35.491Z,98677.19
2023-04-14T14:29:39.906Z,98686.64
2023-04-14T14:30:42.100Z,98677.42
2023-04-14T14:31:44.590Z,98681.75
2023-04-14T14:32:47.047Z,98680.89
2023-04-14T14:33:49.530Z,98680.53
2023-04-14T14:34:51.974Z,98676.23
2023-04-14T14:35:56.263Z,98675.45
2023-04-14T14:36:58.593Z,98672.14
2023-04-14T14:38:01.303Z,98673.28
2023-04-14T14:39:05.183Z,98676.13
2023-04-14T14:40:09.137Z,98676.69
2023-04-14T14:41:11.462Z,98673.66
2023-04-14T14:42:13.946Z,98675.84
2023-04-14T14:43:16.451Z,98671.42
2023-04-14T14:44:18.871Z,98671.00
2023-04-14T14:45:22.259Z,98669.84
2023-04-14T14:46:23.763Z,98675.23
2023-04-14T14:47:26.277Z,98672.31
2023-04-14T14:48:30.706Z,98672.84
2023-04-14T14:49:32.984Z,98672.30
2023-04-14T14:50:35.438Z,98670.56
2023-04-14T14:51:37.913Z,98672.30
2023-04-14T14:52:40.333Z,98668.71
2023-04-14T14:53:43.181Z,98668.64
2023-04-14T14:54:46.902Z,98666.37
2023-04-14T14:55:49.382Z,98662.30
2023-04-14T14:56:51.850Z,98662.88
2023-04-14T14:57:55.963Z,98664.16
2023-04-14T14:58:58.425Z,98661.98
2023-04-14T15:00:00.886Z,98657.09
2023-04-14T15:01:03.475Z,98659.78
2023-04-14T15:02:05.963Z,98660.49
2023-04-14T15:03:08.489Z,98660.70
2023-04-14T15:04:10.850Z,98656.88
2023-04-14T15:05:13.289Z,98654.46
2023-04-14T15:06:17.360Z,98661.82
2023-04-14T15:07:19.767Z,98662.20
2023-04-14T15:08:22.238Z,98661.30
2023-04-14T15:09:27.329Z,98660.25
2023-04-14T15:10:31.230Z,98664.44
2023-04-14T15:11:33.800Z,98658.98
2023-04-14T15:12:37.647Z,98666.62
2023-04-14T15:13:40.476Z,98669.09
2023-04-14T15:14:44.331Z,98669.50
2023-04-14T15:15:47.784Z,98663.42
2023-04-14T15:16:51.733Z,98661.00
2023-04-14T15:17:54.125Z,98658.70
2023-04-14T15:18:56.613Z,98661.34
2023-04-14T15:19:59.032Z,98666.11
2023-04-14T15:21:01.450Z,98668.03
2023-04-14T15:22:05.768Z,98674.98
2023-04-14T15:23:08.561Z,98671.05
2023-04-14T15:24:10.766Z,98668.75
2023-04-14T15:25:13.269Z,98667.63
2023-04-14T15:26:17.527Z,98668.92
2023-04-14T15:27:21.455Z,98663.31
2023-04-14T15:28:25.385Z,98665.00
2023-04-14T15:29:27.695Z,98663.59
2023-04-14T15:30:32.169Z,98664.98
2023-04-14T15:31:34.380Z,98663.39
2023-04-14T15:32:36.783Z,98660.91
2023-04-14T15:33:39.312Z,98656.60
2023-04-14T15:34:43.328Z,98657.83
2023-04-14T15:35:45.719Z,98654.20
2023-04-14T15:36:49.765Z,98658.36
2023-04-14T15:37:52.117Z,98660.94
2023-04-14T15:38:56.206Z,98657.99
2023-04-14T15:39:58.535Z,98655.72
2023-04-14T15:41:01.018Z,98656.17
2023-04-14T15:42:03.488Z,98650.50
2023-04-14T15:43:07.660Z,98659.33
2023-04-14T15:44:11.567Z,98658.67
2023-04-14T15:45:13.915Z,98656.59
2023-04-14T15:46:18.000Z,98657.85
2023-04-14T15:47:20.334Z,98655.80
2023-04-14T15:48:24.460Z,98661.08
2023-04-14T15:49:26.840Z,98666.80
2023-04-14T15:50:30.951Z,98667.25
2023-04-14T15:51:33.279Z,98662.02
2023-04-14T15:52:35.784Z,98661.86
2023-04-14T15:53:39.796Z,98669.22
2023-04-14T15:54:42.149Z,98663.80
2023-04-14T15:55:44.599Z,98665.41
2023-04-14T15:56:47.095Z,98663.55
2023-04-14T15:57:51.203Z,98665.28
2023-04-14T15:58:53.563Z,98662.22
2023-04-14T15:59:57.654Z,98670.44
2023-04-14T16:01:01.661Z,98665.94
2023-04-14T16:02:03.884Z,98664.62
2023-04-14T16:03:06.527Z,98665.27
2023-04-14T16:04:09.185Z,98666.25
2023-04-14T16:05:11.533Z,98662.02
2023-04-14T16:06:13.988Z,98663.70
2023-04-14T16:07:16.636Z,98662.36
2023-04-14T16:08:19.057Z,98665.27
2023-04-14T16:09:21.388Z,98661.14
2023-04-14T16:10:23.907Z,98663.53
2023-04-14T16:11:26.390Z,98662.23
2023-04-14T16:12:28.803Z,98661.93
2023-04-14T16:13:32.270Z,98661.66
2023-04-14T16:14:34.685Z,98665.36
2023-04-14T16:15:37.140Z,98662.28
2023-04-14T16:16:39.552Z,98664.88
2023-04-14T16:17:44.730Z,98661.49
2023-04-14T16:18:46.936Z,98660.52
2023-04-14T16:19:49.380Z,98663.41
2023-04-14T16:20:53.283Z,98666.86
2023-04-14T16:21:57.217Z,98663.36
2023-04-14T16:22:59.566Z,98666.16
2023-04-14T16:24:02.326Z,98669.91
2023-04-14T16:25:04.564Z,98668.36
2023-04-14T16:26:08.632Z,98670.41
2023-04-14T16:27:10.887Z,98668.28
2023-04-14T16:28:13.336Z,98663.98
2023-04-14T16:29:17.446Z,98669.43
2023-04-14T16:30:19.779Z,98663.59
2023-04-14T16:31:22.289Z,98667.36
2023-04-14T16:32:24.792Z,98668.03
2023-04-14T16:33:28.085Z,98668.76
2023-04-14T16:34:32.024Z,98667.98
2023-04-14T16:35:34.394Z,98666.09
2023-04-14T16:36:39.203Z,98668.50
2023-04-14T16:37:40.852Z,98668.44
2023-04-14T16:38:44.829Z,98671.66
2023-04-14T16:39:48.741Z,98668.06
2023-04-14T16:40:52.722Z,98667.72
2023-04-14T16:41:55.046Z,98662.64
2023-04-14T16:42:59.301Z,98667.36
2023-04-14T16:44:01.824Z,98671.14
2023-04-14T16:45:05.682Z,98672.95
2023-04-14T16:46:09.667Z,98675.86
2023-04-14T16:47:12.065Z,98671.09
2023-04-14T16:48:16.848Z,98670.50
2023-04-14T16:49:18.381Z,98668.94
2023-04-14T16:50:22.423Z,98671.42
2023-04-14T16:51:26.434Z,98667.50
2023-04-14T16:52:28.737Z,98665.83
2023-04-14T16:53:31.124Z,98666.21
2023-04-14T16:54:35.164Z,98664.77
2023-04-14T16:55:37.617Z,98666.05
2023-04-14T16:56:41.669Z,98669.56
2023-04-14T16:57:45.567Z,98671.37
2023-04-14T16:58:49.477Z,98671.08
2023-04-14T16:59:53.399Z,98662.70
2023-04-14T17:00:55.688Z,98666.80
2023-04-14T17:01:59.865Z,98666.44
2023-04-14T17:03:02.247Z,98661.97
2023-04-14T17:04:04.984Z,98659.02
2023-04-14T17:05:08.692Z,98662.06
2023-04-14T17:06:11.019Z,98661.77
2023-04-14T17:07:15.082Z,98659.02
2023-04-14T17:08:17.401Z,98660.52
2023-04-14T17:09:19.899Z,98661.27
2023-04-14T17:10:23.963Z,98666.50
2023-04-14T17:11:27.866Z,98664.34
2023-04-14T17:12:30.236Z,98660.70
2023-04-14T17:13:34.267Z,98665.45
2023-04-14T17:14:38.248Z,98662.58
2023-04-14T17:15:42.167Z,98659.91
2023-04-14T17:16:44.507Z,98660.18
2023-04-14T17:17:47.187Z,98662.33
2023-04-14T17:18:51.258Z,98662.22
2023-04-14T17:19:55.033Z,98658.39
2023-04-14T17:20:56.027Z,98659.72
2023-04-14T17:21:58.549Z,98659.41
2023-04-14T17:23:00.976Z,98660.27
2023-04-14T17:24:03.495Z,98661.61
2023-04-14T17:25:05.892Z,98663.08
2023-04-14T17:26:08.357Z,98664.71
2023-04-14T17:27:10.833Z,98662.23
2023-04-14T17:28:14.881Z,98665.53
2023-04-14T17:29:18.761Z,98668.98
2023-04-14T17:30:22.650Z,98670.84
2023-04-14T17:31:26.643Z,98667.57
2023-04-14T17:32:28.914Z,98670.89
2023-04-14T17:33:31.313Z,98671.84
2023-04-14T17:34:33.758Z,98676.26
2023-04-14T17:35:37.715Z,98677.09
2023-04-14T17:36:40.081Z,98677.02
2023-04-14T17:37:44.145Z,98677.36
2023-04-14T17:38:46.424Z,98675.46
2023-04-14T17:39:48.910Z,98677.39
2023-04-14T17:40:52.779Z,98677.70
2023-04-14T17:41:56.737Z,98672.41
2023-04-14T17:42:59.058Z,98668.52
2023-04-14T17:44:01.832Z,98673.78
2023-04-14T17:45:03.910Z,98672.53
2023-04-14T17:46:06.467Z,98673.34
2023-04-14T17:47:08.878Z,98675.94
2023-04-14T17:48:11.374Z,98671.52
2023-04-14T17:49:15.620Z,98674.74
2023-04-14T17:50:17.915Z,98677.23
2023-04-14T17:51:20.342Z,98673.78
2023-04-14T17:52:22.719Z,98676.52
2023-04-14T17:53:26.783Z,98681.98
2023-04-14T17:54:29.090Z,98676.19
2023-04-14T17:55:31.546Z,98673.42
2023-04-14T17:56:34.052Z,98673.30
2023-04-14T17:57:36.347Z,98670.83
2023-04-14T17:58:40.355Z,98681.97
2023-04-14T17:59:42.736Z,98675.74
2023-04-14T18:00:46.770Z,98675.27
2023-04-14T18:01:49.149Z,98678.36
2023-04-14T18:02:53.100Z,98671.11
2023-04-14T18:03:56.956Z,98677.74
2023-04-14T18:04:59.299Z,98671.56
2023-04-14T18:06:01.754Z,98675.09
2023-04-14T18:07:04.157Z,98681.46
2023-04-14T18:08:08.169Z,98674.94
2023-04-14T18:09:10.494Z,98672.16
2023-04-14T18:10:14.533Z,98670.20
2023-04-14T18:11:18.505Z,98675.08
2023-04-14T18:12:22.352Z,98682.05
2023-04-14T18:13:24.702Z,98679.45
2023-04-14T18:14:28.679Z,98677.78
2023-04-14T18:15:30.984Z,98681.99
2023-04-14T18:16:35.227Z,98668.84
2023-04-14T18:17:39.268Z,98675.86
2023-04-14T18:18:43.140Z,98681.44
2023-04-14T18:19:46.992Z,98678.05
2023-04-14T18:20:49.303Z,98674.54
2023-04-14T18:21:51.754Z,98678.48
2023-04-14T18:22:54.162Z,98687.47
2023-04-14T18:25:00.554Z,98686.30
2023-04-14T18:28:07.781Z,98678.84
2023-04-14T18:29:11.755Z,98677.54
2023-04-14T18:38:42.502Z,98677.17
2023-04-14T18:48:13.298Z,98686.81
2023-04-14T18:57:47.732Z,98684.08
2023-04-14T19:07:20.438Z,98687.68
2023-04-14T19:16:53.337Z,98699.48
2023-04-14T19:26:25.414Z,98707.24
2023-04-14T19:35:59.896Z,98709.07
2023-04-14T19:45:30.971Z,98715.17
2023-04-14T19:46:33.446Z,98720.17
2023-04-14T19:56:06.104Z,98714.93
2023-04-14T20:05:39.663Z,98717.67
2023-04-14T20:15:14.532Z,98718.13
2023-04-14T20:24:47.585Z,98716.65
2023-04-14T20:34:19.734Z,98714.55
2023-04-14T20:43:52.566Z,98719.23
2023-04-14T20:53:26.592Z,98722.90
2023-04-14T21:03:01.924Z,98716.11
2023-04-14T21:12:33.791Z,98717.50
2023-04-14T21:22:09.222Z,98713.67
2023-04-14T21:31:41.267Z,98719.45
2023-04-14T21:41:14.330Z,98717.66
2023-04-14T21:50:49.525Z,98718.53
2023-04-14T22:00:23.184Z,98722.56
2023-04-14T22:09:56.860Z,98726.92
2023-04-14T22:19:28.099Z,98726.03
2023-04-14T22:29:02.934Z,98717.45
2023-04-14T22:38:34.409Z,98728.12
2023-04-14T22:48:07.532Z,98734.77
2023-04-14T22:57:40.703Z,98742.60
2023-04-14T23:07:15.849Z,98746.37
2023-04-14T23:16:49.169Z,98746.09
2023-04-14T23:26:20.886Z,98749.64
2023-04-14T23:35:55.496Z,98756.81
2023-04-14T23:45:29.571Z,98754.72
2023-04-14T23:55:02.593Z,98751.72
